createdAt,value
2017-10-20T00:00:25.638Z,0
2017-10-20T00:01:25.626Z,0
2017-10-20T00:02:26.265Z,0
2017-10-20T00:03:26.590Z,0
2017-10-20T00:04:26.590Z,0
2017-10-20T00:05:25.958Z,0
2017-10-20T00:06:25.946Z,0
2017-10-20T00:07:25.293Z,0
2017-10-20T00:08:25.934Z,0
2017-10-20T00:09:26.254Z,0
2017-10-20T00:10:26.256Z,0
2017-10-20T00:11:26.575Z,0
2017-10-20T00:12:26.250Z,0
2017-10-20T00:13:26.571Z,0
2017-10-20T00:14:26.571Z,0
2017-10-20T00:15:26.498Z,0
2017-10-20T00:16:25.918Z,0
2017-10-20T00:17:26.255Z,0
2017-10-20T00:18:25.918Z,0
2017-10-20T00:19:25.934Z,0
2017-10-20T00:20:26.575Z,0
2017-10-20T00:21:25.925Z,0
2017-10-20T00:22:26.258Z,0
2017-10-20T00:23:26.237Z,0
2017-10-20T00:24:26.572Z,0
2017-10-20T00:25:26.562Z,0
2017-10-20T00:26:26.552Z,0
2017-10-20T00:27:26.261Z,0
2017-10-20T00:28:25.895Z,0
2017-10-20T00:29:26.219Z,0
2017-10-20T00:30:27.803Z,0
2017-10-20T00:31:26.538Z,0
2017-10-20T00:32:26.540Z,0
2017-10-20T00:33:26.227Z,0
2017-10-20T00:34:26.578Z,0
2017-10-20T00:35:26.546Z,0
2017-10-20T00:36:26.541Z,0
2017-10-20T00:37:26.219Z,0
2017-10-20T00:38:25.554Z,0
2017-10-20T00:39:25.885Z,0
2017-10-20T00:40:27.053Z,0
2017-10-20T00:41:26.874Z,0
2017-10-20T00:42:26.226Z,0
2017-10-20T00:43:25.877Z,0
2017-10-20T00:44:26.504Z,0
2017-10-20T00:45:27.010Z,0
2017-10-20T00:46:26.181Z,0
2017-10-20T00:47:25.866Z,0
2017-10-20T00:48:25.864Z,0
2017-10-20T00:49:26.251Z,0
2017-10-20T00:50:26.185Z,0
2017-10-20T00:51:26.511Z,0
2017-10-20T00:52:25.872Z,0
2017-10-20T00:53:25.870Z,0
2017-10-20T00:54:26.192Z,0
2017-10-20T00:55:26.580Z,0
2017-10-20T00:56:25.853Z,0
2017-10-20T00:57:26.162Z,0
2017-10-20T00:58:26.497Z,0
2017-10-20T00:59:26.201Z,0
2017-10-20T01:00:26.219Z,0
2017-10-20T01:01:26.502Z,0
2017-10-20T01:02:26.160Z,0
2017-10-20T01:03:26.200Z,0
2017-10-20T01:04:25.847Z,0
2017-10-20T01:05:26.494Z,0
2017-10-20T01:06:26.162Z,0
2017-10-20T01:07:26.158Z,0
2017-10-20T01:08:26.153Z,0
2017-10-20T01:09:25.831Z,0
2017-10-20T01:10:26.182Z,0
2017-10-20T01:11:26.145Z,0
2017-10-20T01:12:25.837Z,0
2017-10-20T01:13:26.151Z,0
2017-10-20T01:14:26.141Z,0
2017-10-20T01:15:29.187Z,0
2017-10-20T01:16:25.828Z,0
2017-10-20T01:17:25.264Z,0
2017-10-20T01:18:26.169Z,0
2017-10-20T01:19:25.830Z,0
2017-10-20T01:20:26.499Z,0
2017-10-20T01:21:26.460Z,0
2017-10-20T01:22:26.151Z,0
2017-10-20T01:23:26.145Z,0
2017-10-20T01:24:26.123Z,0
2017-10-20T01:25:26.464Z,0
2017-10-20T01:26:25.485Z,0
2017-10-20T01:27:26.456Z,0
2017-10-20T01:28:26.242Z,0
2017-10-20T01:29:26.137Z,0
2017-10-20T01:30:25.476Z,0
2017-10-20T01:31:26.430Z,0
2017-10-20T01:32:25.808Z,0
2017-10-20T01:33:26.118Z,0
2017-10-20T01:34:26.452Z,0
2017-10-20T01:35:25.799Z,0
2017-10-20T01:36:25.806Z,0
2017-10-20T01:37:25.795Z,0
2017-10-20T01:38:26.119Z,0
2017-10-20T01:39:26.111Z,0
2017-10-20T01:40:25.788Z,0
2017-10-20T01:41:25.790Z,0
2017-10-20T01:42:26.103Z,0
2017-10-20T01:43:26.422Z,0
2017-10-20T01:44:26.134Z,0
2017-10-20T01:45:26.179Z,0
2017-10-20T01:46:28.961Z,0
2017-10-20T01:47:25.778Z,0
2017-10-20T01:48:25.787Z,0
2017-10-20T01:49:26.438Z,0
2017-10-20T01:50:25.784Z,0
2017-10-20T01:51:26.095Z,0
2017-10-20T01:52:26.095Z,0
2017-10-20T01:53:26.088Z,0
2017-10-20T01:54:26.078Z,0
2017-10-20T01:55:25.781Z,0
2017-10-20T01:56:25.755Z,0
2017-10-20T01:57:26.090Z,0
2017-10-20T01:58:26.400Z,0
2017-10-20T01:59:25.826Z,0
2017-10-20T02:00:26.410Z,0
2017-10-20T02:01:26.462Z,0
2017-10-20T02:02:26.082Z,0
2017-10-20T02:03:26.142Z,0
2017-10-20T02:04:26.398Z,0
2017-10-20T02:05:26.445Z,0
2017-10-20T02:06:25.426Z,0
2017-10-20T02:07:26.063Z,0
2017-10-20T02:08:25.750Z,0
2017-10-20T02:09:26.066Z,0
2017-10-20T02:10:26.398Z,0
2017-10-20T02:11:26.069Z,0
2017-10-20T02:12:26.070Z,0
2017-10-20T02:13:26.403Z,0
2017-10-20T02:14:26.054Z,0
2017-10-20T02:15:26.063Z,0
2017-10-20T02:16:27.729Z,0
2017-10-20T02:17:26.373Z,0
2017-10-20T02:18:26.406Z,0
2017-10-20T02:19:25.434Z,0
2017-10-20T02:20:25.739Z,0
2017-10-20T02:21:26.035Z,0
2017-10-20T02:22:26.371Z,0
2017-10-20T02:23:26.042Z,0
2017-10-20T02:24:26.049Z,0
2017-10-20T02:25:26.043Z,0
2017-10-20T02:26:26.372Z,0
2017-10-20T02:27:26.045Z,0
2017-10-20T02:28:26.029Z,0
2017-10-20T02:29:25.710Z,0
2017-10-20T02:30:26.375Z,0
2017-10-20T02:31:26.018Z,0
2017-10-20T02:32:26.080Z,0
2017-10-20T02:33:25.701Z,0
2017-10-20T02:34:25.699Z,0
2017-10-20T02:35:26.346Z,0
2017-10-20T02:36:26.344Z,0
2017-10-20T02:37:26.339Z,0
2017-10-20T02:38:26.020Z,0
2017-10-20T02:39:26.029Z,0
2017-10-20T02:40:25.689Z,0
2017-10-20T02:41:26.324Z,0
2017-10-20T02:42:26.025Z,0
2017-10-20T02:43:26.334Z,0
2017-10-20T02:44:26.000Z,0
2017-10-20T02:45:26.326Z,0
2017-10-20T02:46:26.083Z,0
2017-10-20T02:47:28.699Z,0
2017-10-20T02:48:26.310Z,0
2017-10-20T02:49:26.058Z,0
2017-10-20T02:50:26.001Z,0
2017-10-20T02:51:25.674Z,0
2017-10-20T02:52:25.659Z,0
2017-10-20T02:53:25.991Z,0
2017-10-20T02:54:26.333Z,0
2017-10-20T02:55:26.349Z,0
2017-10-20T02:56:25.970Z,0
2017-10-20T02:57:26.295Z,0
2017-10-20T02:58:25.328Z,0
2017-10-20T02:59:25.985Z,0
2017-10-20T03:00:26.319Z,0
2017-10-20T03:01:26.297Z,0
2017-10-20T03:02:25.705Z,0
2017-10-20T03:03:26.292Z,0
2017-10-20T03:04:25.967Z,0
2017-10-20T03:05:25.977Z,0
2017-10-20T03:06:25.980Z,0
2017-10-20T03:07:26.275Z,0
2017-10-20T03:08:25.643Z,0
2017-10-20T03:09:26.290Z,0
2017-10-20T03:10:25.956Z,0
2017-10-20T03:11:26.270Z,0
2017-10-20T03:12:26.269Z,0
2017-10-20T03:13:25.954Z,0
2017-10-20T03:14:26.279Z,0
2017-10-20T03:15:25.942Z,0
2017-10-20T03:16:26.255Z,0
2017-10-20T03:17:27.204Z,0
2017-10-20T03:18:25.946Z,0
2017-10-20T03:19:25.938Z,0
2017-10-20T03:20:26.273Z,0
2017-10-20T03:21:25.940Z,0
2017-10-20T03:22:25.630Z,0
2017-10-20T03:23:25.612Z,0
2017-10-20T03:24:25.929Z,0
2017-10-20T03:25:25.941Z,0
2017-10-20T03:26:25.955Z,0
2017-10-20T03:27:24.969Z,0
2017-10-20T03:28:26.247Z,0
2017-10-20T03:29:25.915Z,0
2017-10-20T03:30:26.003Z,0
2017-10-20T03:31:25.943Z,0
2017-10-20T03:32:25.637Z,0
2017-10-20T03:33:26.229Z,0
2017-10-20T03:34:26.245Z,0
2017-10-20T03:35:25.916Z,0
2017-10-20T03:36:25.600Z,0
2017-10-20T03:37:26.221Z,0
2017-10-20T03:38:26.232Z,0
2017-10-20T03:39:26.261Z,0
2017-10-20T03:40:26.246Z,0
2017-10-20T03:41:26.239Z,0
2017-10-20T03:42:25.888Z,0
2017-10-20T03:43:25.897Z,0
2017-10-20T03:44:25.573Z,0
2017-10-20T03:45:26.216Z,0
2017-10-20T03:46:25.564Z,0
2017-10-20T03:47:26.139Z,0
2017-10-20T03:48:25.880Z,0
2017-10-20T03:49:25.887Z,0
2017-10-20T03:50:25.566Z,0
2017-10-20T03:51:25.887Z,0
2017-10-20T03:52:25.876Z,0
2017-10-20T03:53:25.556Z,0
2017-10-20T03:54:25.544Z,0
2017-10-20T03:55:25.981Z,0
2017-10-20T03:56:26.205Z,0
2017-10-20T03:57:26.185Z,0
2017-10-20T03:58:26.179Z,0
2017-10-20T03:59:25.857Z,0
2017-10-20T04:00:26.199Z,0
2017-10-20T04:01:25.530Z,0
2017-10-20T04:02:26.161Z,0
2017-10-20T04:03:25.849Z,0
2017-10-20T04:04:25.858Z,0
2017-10-20T04:05:26.174Z,0
2017-10-20T04:06:25.840Z,0
2017-10-20T04:07:25.193Z,0
2017-10-20T04:08:25.521Z,0
2017-10-20T04:09:25.843Z,0
2017-10-20T04:10:25.525Z,0
2017-10-20T04:11:25.524Z,0
2017-10-20T04:12:25.192Z,0
2017-10-20T04:13:26.140Z,0
2017-10-20T04:14:25.817Z,0
2017-10-20T04:15:26.183Z,0
2017-10-20T04:16:26.135Z,0
2017-10-20T04:17:27.992Z,0
2017-10-20T04:18:26.126Z,0
2017-10-20T04:19:26.148Z,0
2017-10-20T04:20:25.892Z,0
2017-10-20T04:21:25.803Z,0
2017-10-20T04:22:25.474Z,0
2017-10-20T04:23:26.120Z,0
2017-10-20T04:24:26.118Z,0
2017-10-20T04:25:26.113Z,0
2017-10-20T04:26:25.801Z,0
2017-10-20T04:27:25.144Z,0
2017-10-20T04:28:25.796Z,0
2017-10-20T04:29:26.108Z,0
2017-10-20T04:30:26.077Z,0
2017-10-20T04:31:25.469Z,0
2017-10-20T04:32:25.851Z,0
2017-10-20T04:33:25.790Z,0
2017-10-20T04:34:25.487Z,0
2017-10-20T04:35:25.445Z,0
2017-10-20T04:36:25.793Z,0
2017-10-20T04:37:25.779Z,0
2017-10-20T04:38:25.774Z,0
2017-10-20T04:39:25.445Z,0
2017-10-20T04:40:25.756Z,0
2017-10-20T04:41:26.075Z,0
2017-10-20T04:42:26.072Z,0
2017-10-20T04:43:25.431Z,0
2017-10-20T04:44:25.750Z,0
2017-10-20T04:45:25.744Z,0
2017-10-20T04:46:25.749Z,0
2017-10-20T04:47:27.980Z,0
2017-10-20T04:48:25.094Z,0
2017-10-20T04:49:26.075Z,0
2017-10-20T04:50:25.411Z,0
2017-10-20T04:51:25.424Z,0
2017-10-20T04:52:26.081Z,0
2017-10-20T04:53:25.427Z,0
2017-10-20T04:54:25.090Z,0
2017-10-20T04:55:25.414Z,0
2017-10-20T04:56:26.066Z,0
2017-10-20T04:57:25.719Z,0
2017-10-20T04:58:25.729Z,0
2017-10-20T04:59:25.720Z,0
2017-10-20T05:00:25.740Z,0
2017-10-20T05:01:26.033Z,0
2017-10-20T05:02:25.395Z,0
2017-10-20T05:03:28.980Z,0
2017-10-20T05:04:26.026Z,0
2017-10-20T05:05:26.028Z,0
2017-10-20T05:06:26.022Z,0
2017-10-20T05:07:25.066Z,0
2017-10-20T05:08:25.058Z,0
2017-10-20T05:09:26.024Z,0
2017-10-20T05:10:25.487Z,0
2017-10-20T05:11:25.371Z,0
2017-10-20T05:12:25.688Z,0
2017-10-20T05:13:26.036Z,0
2017-10-20T05:14:25.697Z,0
2017-10-20T05:15:25.361Z,0
2017-10-20T05:16:25.680Z,0
2017-10-20T05:17:25.686Z,0
2017-10-20T05:18:29.193Z,0
2017-10-20T05:19:25.680Z,0
2017-10-20T05:20:25.350Z,0
2017-10-20T05:21:25.353Z,0
2017-10-20T05:22:25.671Z,0
2017-10-20T05:23:25.370Z,0
2017-10-20T05:24:25.998Z,0
2017-10-20T05:25:25.033Z,0
2017-10-20T05:26:25.370Z,0
2017-10-20T05:27:25.988Z,0
2017-10-20T05:28:25.015Z,0
2017-10-20T05:29:25.332Z,0
2017-10-20T05:30:26.008Z,0
2017-10-20T05:31:25.977Z,0
2017-10-20T05:32:25.319Z,0
2017-10-20T05:33:25.703Z,0
2017-10-20T05:34:25.967Z,0
2017-10-20T05:35:25.727Z,0
2017-10-20T05:36:25.960Z,0
2017-10-20T05:37:25.656Z,0
2017-10-20T05:38:25.958Z,0
2017-10-20T05:39:25.641Z,0
2017-10-20T05:40:25.534Z,0
2017-10-20T05:41:25.953Z,0
2017-10-20T05:42:25.949Z,0
2017-10-20T05:43:25.296Z,0
2017-10-20T05:44:25.301Z,0
2017-10-20T05:45:25.938Z,0
2017-10-20T05:46:25.943Z,0
2017-10-20T05:47:25.301Z,0
2017-10-20T05:48:25.608Z,0
2017-10-20T05:49:27.792Z,0
2017-10-20T05:50:25.841Z,0
2017-10-20T05:51:25.599Z,0
2017-10-20T05:52:25.274Z,0
2017-10-20T05:53:25.924Z,0
2017-10-20T05:54:25.274Z,5
2017-10-20T05:55:25.918Z,5
2017-10-20T05:56:25.593Z,10
2017-10-20T05:57:25.274Z,10
2017-10-20T05:58:25.596Z,10
2017-10-20T05:59:25.602Z,10
2017-10-20T06:00:25.942Z,15
2017-10-20T06:01:25.581Z,15
2017-10-20T06:02:25.893Z,15
2017-10-20T06:03:25.575Z,15
2017-10-20T06:04:24.995Z,15
2017-10-20T06:05:25.334Z,15
2017-10-20T06:06:25.899Z,15
2017-10-20T06:07:25.569Z,15
2017-10-20T06:08:25.590Z,20
2017-10-20T06:09:24.921Z,20
2017-10-20T06:10:25.989Z,20
2017-10-20T06:11:25.560Z,20
2017-10-20T06:12:25.244Z,20
2017-10-20T06:13:25.897Z,25
2017-10-20T06:14:25.228Z,20
2017-10-20T06:15:25.663Z,30
2017-10-20T06:16:25.874Z,30
2017-10-20T06:17:25.551Z,30
2017-10-20T06:18:24.930Z,35
2017-10-20T06:19:27.728Z,30
2017-10-20T06:20:25.670Z,25
2017-10-20T06:21:25.536Z,30
2017-10-20T06:22:25.548Z,30
2017-10-20T06:23:25.852Z,30
2017-10-20T06:24:25.211Z,30
2017-10-20T06:25:24.966Z,30
2017-10-20T06:26:25.847Z,30
2017-10-20T06:27:25.556Z,30
2017-10-20T06:28:25.848Z,30
2017-10-20T06:29:24.883Z,35
2017-10-20T06:30:25.559Z,35
2017-10-20T06:31:24.880Z,35
2017-10-20T06:32:25.524Z,40
2017-10-20T06:33:25.848Z,40
2017-10-20T06:34:25.066Z,40
2017-10-20T06:35:25.608Z,40
2017-10-20T06:36:25.184Z,45
2017-10-20T06:37:25.533Z,45
2017-10-20T06:38:25.526Z,50
2017-10-20T06:39:25.527Z,50
2017-10-20T06:40:25.322Z,55
2017-10-20T06:41:25.198Z,60
2017-10-20T06:42:24.866Z,60
2017-10-20T06:43:25.532Z,65
2017-10-20T06:44:25.507Z,65
2017-10-20T06:45:24.955Z,65
2017-10-20T06:46:25.814Z,65
2017-10-20T06:47:25.166Z,65
2017-10-20T06:48:25.487Z,65
2017-10-20T06:49:28.514Z,60
2017-10-20T06:50:25.623Z,60
2017-10-20T06:51:25.805Z,60
2017-10-20T06:52:24.859Z,55
2017-10-20T06:53:25.168Z,55
2017-10-20T06:54:25.548Z,55
2017-10-20T06:55:26.004Z,55
2017-10-20T06:56:25.838Z,55
2017-10-20T06:57:25.797Z,60
2017-10-20T06:58:25.161Z,55
2017-10-20T06:59:25.476Z,50
2017-10-20T07:00:25.955Z,50
2017-10-20T07:01:25.488Z,50
2017-10-20T07:02:25.792Z,50
2017-10-20T07:03:25.479Z,50
2017-10-20T07:04:25.150Z,50
2017-10-20T07:05:24.726Z,50
2017-10-20T07:06:25.137Z,55
2017-10-20T07:07:25.148Z,55
2017-10-20T07:08:25.481Z,55
2017-10-20T07:09:25.136Z,60
2017-10-20T07:10:25.518Z,65
2017-10-20T07:11:25.463Z,65
2017-10-20T07:12:25.783Z,75
2017-10-20T07:13:25.454Z,75
2017-10-20T07:14:25.446Z,80
2017-10-20T07:15:27.536Z,85
2017-10-20T07:16:24.807Z,85
2017-10-20T07:17:25.455Z,90
2017-10-20T07:18:25.764Z,95
2017-10-20T07:19:25.450Z,95
2017-10-20T07:20:27.444Z,90
2017-10-20T07:21:25.120Z,90
2017-10-20T07:22:25.114Z,90
2017-10-20T07:23:25.120Z,85
2017-10-20T07:24:25.119Z,85
2017-10-20T07:25:25.148Z,85
2017-10-20T07:26:25.436Z,85
2017-10-20T07:27:25.767Z,85
2017-10-20T07:28:25.762Z,85
2017-10-20T07:29:25.424Z,90
2017-10-20T07:30:25.747Z,90
2017-10-20T07:31:25.103Z,90
2017-10-20T07:32:25.463Z,90
2017-10-20T07:33:25.104Z,85
2017-10-20T07:34:25.441Z,90
2017-10-20T07:35:25.490Z,85
2017-10-20T07:36:25.416Z,85
2017-10-20T07:37:25.424Z,85
2017-10-20T07:38:25.750Z,85
2017-10-20T07:39:25.105Z,85
2017-10-20T07:40:25.160Z,85
2017-10-20T07:41:25.416Z,85
2017-10-20T07:42:25.092Z,85
2017-10-20T07:43:25.736Z,85
2017-10-20T07:44:25.435Z,85
2017-10-20T07:45:25.513Z,80
2017-10-20T07:46:25.414Z,70
2017-10-20T07:47:25.413Z,65
2017-10-20T07:48:25.414Z,60
2017-10-20T07:49:25.732Z,60
2017-10-20T07:50:25.408Z,60
2017-10-20T07:51:25.409Z,55
2017-10-20T07:52:25.754Z,55
2017-10-20T07:53:25.087Z,55
2017-10-20T07:54:24.765Z,55
2017-10-20T07:55:25.270Z,55
2017-10-20T07:56:25.406Z,55
2017-10-20T07:57:25.402Z,55
2017-10-20T07:58:25.089Z,55
2017-10-20T07:59:25.742Z,55
2017-10-20T08:00:24.849Z,55
2017-10-20T08:01:25.085Z,55
2017-10-20T08:02:25.424Z,60
2017-10-20T08:03:25.089Z,65
2017-10-20T08:04:25.400Z,70
2017-10-20T08:05:25.929Z,75
2017-10-20T08:06:25.408Z,80
2017-10-20T08:07:25.084Z,85
2017-10-20T08:08:25.394Z,85
2017-10-20T08:09:25.399Z,85
2017-10-20T08:10:25.097Z,90
2017-10-20T08:11:25.081Z,90
2017-10-20T08:12:25.083Z,90
2017-10-20T08:13:25.737Z,90
2017-10-20T08:14:25.072Z,90
2017-10-20T08:15:25.100Z,90
2017-10-20T08:16:25.726Z,90
2017-10-20T08:17:25.066Z,90
2017-10-20T08:18:25.403Z,90
2017-10-20T08:19:24.778Z,90
2017-10-20T08:20:25.393Z,90
2017-10-20T08:21:27.177Z,90
2017-10-20T08:22:25.087Z,90
2017-10-20T08:23:25.403Z,90
2017-10-20T08:24:25.723Z,90
2017-10-20T08:25:25.131Z,90
2017-10-20T08:26:25.722Z,90
2017-10-20T08:27:25.721Z,90
2017-10-20T08:28:25.403Z,85
2017-10-20T08:29:25.724Z,85
2017-10-20T08:30:25.062Z,85
2017-10-20T08:31:25.721Z,90
2017-10-20T08:32:25.386Z,90
2017-10-20T08:33:25.086Z,90
2017-10-20T08:34:25.397Z,90
2017-10-20T08:35:25.405Z,95
2017-10-20T08:36:24.787Z,95
2017-10-20T08:37:25.729Z,100
2017-10-20T08:38:24.760Z,105
2017-10-20T08:39:25.710Z,110
2017-10-20T08:40:25.388Z,115
2017-10-20T08:41:25.405Z,120
2017-10-20T08:42:25.068Z,120
2017-10-20T08:43:25.703Z,125
2017-10-20T08:44:25.065Z,130
2017-10-20T08:45:25.158Z,130
2017-10-20T08:46:25.386Z,135
2017-10-20T08:47:24.744Z,145
2017-10-20T08:48:25.702Z,145
2017-10-20T08:49:25.708Z,155
2017-10-20T08:50:25.147Z,155
2017-10-20T08:51:27.809Z,160
2017-10-20T08:52:25.066Z,165
2017-10-20T08:53:25.416Z,170
2017-10-20T08:54:25.376Z,170
2017-10-20T08:55:25.088Z,205
2017-10-20T08:56:25.068Z,180
2017-10-20T08:57:25.379Z,180
2017-10-20T08:58:25.719Z,185
2017-10-20T08:59:25.070Z,205
2017-10-20T09:00:25.074Z,180
2017-10-20T09:01:25.715Z,175
2017-10-20T09:02:25.384Z,175
2017-10-20T09:03:25.390Z,170
2017-10-20T09:04:25.399Z,170
2017-10-20T09:05:25.060Z,180
2017-10-20T09:06:25.431Z,170
2017-10-20T09:07:25.085Z,180
2017-10-20T09:08:25.404Z,180
2017-10-20T09:09:25.442Z,185
2017-10-20T09:10:25.063Z,185
2017-10-20T09:11:25.746Z,180
2017-10-20T09:12:24.741Z,180
2017-10-20T09:13:25.712Z,175
2017-10-20T09:14:25.385Z,175
2017-10-20T09:15:25.110Z,175
2017-10-20T09:16:24.753Z,175
2017-10-20T09:17:25.390Z,175
2017-10-20T09:18:25.080Z,185
2017-10-20T09:19:25.085Z,170
2017-10-20T09:20:24.779Z,170
2017-10-20T09:21:26.835Z,170
2017-10-20T09:22:25.763Z,165
2017-10-20T09:23:25.412Z,165
2017-10-20T09:24:25.749Z,165
2017-10-20T09:25:25.933Z,155
2017-10-20T09:26:25.429Z,155
2017-10-20T09:27:25.106Z,150
2017-10-20T09:28:25.731Z,150
2017-10-20T09:29:25.763Z,150
2017-10-20T09:30:25.798Z,150
2017-10-20T09:31:26.697Z,150
2017-10-20T09:32:25.124Z,155
2017-10-20T09:33:24.786Z,160
2017-10-20T09:34:25.743Z,165
2017-10-20T09:35:26.188Z,165
2017-10-20T09:36:25.437Z,165
2017-10-20T09:37:25.477Z,170
2017-10-20T09:38:25.478Z,170
2017-10-20T09:39:25.427Z,170
2017-10-20T09:40:25.480Z,170
2017-10-20T09:41:25.109Z,170
2017-10-20T09:42:25.768Z,175
2017-10-20T09:43:25.758Z,175
2017-10-20T09:44:25.822Z,175
2017-10-20T09:45:25.817Z,180
2017-10-20T09:46:25.430Z,180
2017-10-20T09:47:25.464Z,180
2017-10-20T09:48:25.428Z,185
2017-10-20T09:49:25.439Z,185
2017-10-20T09:50:26.057Z,190
2017-10-20T09:51:25.777Z,190
2017-10-20T09:52:25.440Z,190
2017-10-20T09:53:25.791Z,190
2017-10-20T09:54:25.137Z,190
2017-10-20T09:55:25.640Z,210
2017-10-20T09:56:25.133Z,195
2017-10-20T09:57:25.797Z,195
2017-10-20T09:58:25.462Z,195
2017-10-20T09:59:25.462Z,200
2017-10-20T10:00:25.359Z,200
2017-10-20T10:01:24.492Z,200
2017-10-20T10:02:25.134Z,200
2017-10-20T10:03:25.784Z,195
2017-10-20T10:04:25.783Z,200
2017-10-20T10:05:25.813Z,200
2017-10-20T10:06:25.459Z,205
2017-10-20T10:07:27.628Z,230
2017-10-20T10:08:24.821Z,215
2017-10-20T10:09:25.796Z,220
2017-10-20T10:10:25.583Z,215
2017-10-20T10:11:25.167Z,220
2017-10-20T10:12:25.166Z,215
2017-10-20T10:13:25.484Z,220
2017-10-20T10:14:25.151Z,225
2017-10-20T10:15:25.590Z,220
2017-10-20T10:16:25.801Z,220
2017-10-20T10:17:25.498Z,220
2017-10-20T10:18:25.493Z,215
2017-10-20T10:19:25.814Z,215
2017-10-20T10:20:25.722Z,215
2017-10-20T10:21:25.166Z,210
2017-10-20T10:22:30.915Z,210
2017-10-20T10:23:25.185Z,205
2017-10-20T10:24:25.177Z,205
2017-10-20T10:25:25.959Z,205
2017-10-20T10:26:25.844Z,210
2017-10-20T10:27:25.188Z,205
2017-10-20T10:28:25.208Z,205
2017-10-20T10:29:25.850Z,200
2017-10-20T10:30:25.425Z,200
2017-10-20T10:31:25.209Z,195
2017-10-20T10:32:25.878Z,195
2017-10-20T10:33:25.193Z,200
2017-10-20T10:34:25.194Z,200
2017-10-20T10:35:25.755Z,200
2017-10-20T10:36:25.856Z,195
2017-10-20T10:37:26.048Z,195
2017-10-20T10:38:25.566Z,195
2017-10-20T10:39:25.870Z,200
2017-10-20T10:40:25.788Z,200
2017-10-20T10:41:25.543Z,200
2017-10-20T10:42:25.558Z,200
2017-10-20T10:43:25.868Z,200
2017-10-20T10:44:25.249Z,210
2017-10-20T10:45:24.995Z,205
2017-10-20T10:46:25.233Z,210
2017-10-20T10:47:25.555Z,220
2017-10-20T10:48:25.587Z,225
2017-10-20T10:49:25.550Z,230
2017-10-20T10:50:26.064Z,230
2017-10-20T10:51:25.266Z,245
2017-10-20T10:52:27.279Z,245
2017-10-20T10:53:25.577Z,255
2017-10-20T10:54:24.938Z,270
2017-10-20T10:55:25.681Z,285
2017-10-20T10:56:24.940Z,285
2017-10-20T10:57:25.613Z,275
2017-10-20T10:58:25.592Z,275
2017-10-20T10:59:25.912Z,250
2017-10-20T11:00:26.189Z,260
2017-10-20T11:01:25.592Z,230
2017-10-20T11:02:25.608Z,245
2017-10-20T11:03:25.283Z,205
2017-10-20T11:04:25.282Z,205
2017-10-20T11:05:25.575Z,205
2017-10-20T11:06:25.276Z,200
2017-10-20T11:07:25.669Z,190
2017-10-20T11:08:25.297Z,185
2017-10-20T11:09:25.949Z,180
2017-10-20T11:10:26.196Z,170
2017-10-20T11:11:25.313Z,160
2017-10-20T11:12:25.634Z,145
2017-10-20T11:13:25.671Z,140
2017-10-20T11:14:25.343Z,140
2017-10-20T11:15:26.494Z,140
2017-10-20T11:16:25.639Z,150
2017-10-20T11:17:25.314Z,170
2017-10-20T11:18:25.665Z,180
2017-10-20T11:19:25.975Z,185
2017-10-20T11:20:25.804Z,185
2017-10-20T11:21:25.017Z,175
2017-10-20T11:22:28.057Z,170
2017-10-20T11:23:25.662Z,165
2017-10-20T11:24:25.665Z,160
2017-10-20T11:25:25.670Z,150
2017-10-20T11:26:25.017Z,135
2017-10-20T11:27:25.680Z,130
2017-10-20T11:28:25.354Z,120
2017-10-20T11:29:25.677Z,115
2017-10-20T11:30:25.914Z,125
2017-10-20T11:31:25.072Z,140
2017-10-20T11:32:25.033Z,160
2017-10-20T11:33:25.696Z,175
2017-10-20T11:34:25.706Z,170
2017-10-20T11:35:26.007Z,155
2017-10-20T11:36:25.078Z,130
2017-10-20T11:37:25.055Z,120
2017-10-20T11:38:27.612Z,120
2017-10-20T11:39:25.740Z,120
2017-10-20T11:40:26.048Z,135
2017-10-20T11:41:25.730Z,150
2017-10-20T11:42:25.738Z,150
2017-10-20T11:43:25.539Z,140
2017-10-20T11:44:25.449Z,130
2017-10-20T11:45:25.769Z,120
2017-10-20T11:46:25.810Z,120
2017-10-20T11:47:26.121Z,125
2017-10-20T11:48:24.894Z,125
2017-10-20T11:49:25.745Z,130
2017-10-20T11:50:25.753Z,140
2017-10-20T11:51:25.763Z,150
2017-10-20T11:52:25.766Z,170
2017-10-20T11:53:27.386Z,180
2017-10-20T11:54:25.451Z,165
2017-10-20T11:55:25.770Z,155
2017-10-20T11:56:25.778Z,145
2017-10-20T11:57:25.144Z,130
2017-10-20T11:58:26.101Z,115
2017-10-20T11:59:25.455Z,110
2017-10-20T12:00:26.311Z,110
2017-10-20T12:01:25.800Z,105
2017-10-20T12:02:26.120Z,100
2017-10-20T12:03:25.474Z,95
2017-10-20T12:04:26.182Z,90
2017-10-20T12:05:26.342Z,80
2017-10-20T12:06:25.493Z,75
2017-10-20T12:07:25.833Z,70
2017-10-20T12:08:25.553Z,70
2017-10-20T12:09:25.834Z,70
2017-10-20T12:10:25.510Z,65
2017-10-20T12:11:25.837Z,65
2017-10-20T12:12:25.514Z,70
2017-10-20T12:13:25.516Z,70
2017-10-20T12:14:25.839Z,70
2017-10-20T12:15:25.899Z,75
2017-10-20T12:16:25.852Z,80
2017-10-20T12:17:25.525Z,80
2017-10-20T12:18:25.571Z,85
2017-10-20T12:19:25.855Z,85
2017-10-20T12:20:25.305Z,95
2017-10-20T12:21:25.856Z,95
2017-10-20T12:22:25.871Z,100
2017-10-20T12:23:26.161Z,105
2017-10-20T12:24:26.203Z,110
2017-10-20T12:25:26.270Z,115
2017-10-20T12:26:26.236Z,110
2017-10-20T12:27:25.878Z,110
2017-10-20T12:28:25.883Z,115
2017-10-20T12:29:25.924Z,120
2017-10-20T12:30:26.267Z,125
2017-10-20T12:31:26.215Z,130
2017-10-20T12:32:26.206Z,130
2017-10-20T12:33:26.225Z,125
2017-10-20T12:34:25.581Z,120
2017-10-20T12:35:25.577Z,115
2017-10-20T12:36:26.226Z,115
2017-10-20T12:37:25.902Z,125
2017-10-20T12:38:25.964Z,135
2017-10-20T12:39:25.910Z,145
2017-10-20T12:40:25.917Z,150
2017-10-20T12:41:25.936Z,145
2017-10-20T12:42:26.248Z,140
2017-10-20T12:43:25.924Z,135
2017-10-20T12:44:25.616Z,130
2017-10-20T12:45:25.605Z,120
2017-10-20T12:46:26.255Z,120
2017-10-20T12:47:25.288Z,130
2017-10-20T12:48:25.932Z,135
2017-10-20T12:49:26.263Z,145
2017-10-20T12:50:25.023Z,145
2017-10-20T12:51:25.304Z,145
2017-10-20T12:52:26.276Z,135
2017-10-20T12:53:28.181Z,120
2017-10-20T12:54:25.953Z,110
2017-10-20T12:55:26.290Z,95
2017-10-20T12:56:26.283Z,85
2017-10-20T12:57:25.643Z,80
2017-10-20T12:58:26.297Z,70
2017-10-20T12:59:25.970Z,65
2017-10-20T13:00:25.973Z,60
2017-10-20T13:01:25.658Z,55
2017-10-20T13:02:25.684Z,50
2017-10-20T13:03:25.979Z,50
2017-10-20T13:04:26.016Z,50
2017-10-20T13:05:26.344Z,50
2017-10-20T13:06:25.982Z,55
2017-10-20T13:07:26.334Z,65
2017-10-20T13:08:25.997Z,75
2017-10-20T13:09:26.455Z,80
2017-10-20T13:10:25.680Z,90
2017-10-20T13:11:25.682Z,100
2017-10-20T13:12:26.007Z,105
2017-10-20T13:13:26.325Z,110
2017-10-20T13:14:25.761Z,95
2017-10-20T13:15:26.692Z,90
2017-10-20T13:16:26.330Z,90
2017-10-20T13:17:25.716Z,85
2017-10-20T13:18:25.390Z,80
2017-10-20T13:19:26.023Z,80
2017-10-20T13:20:26.074Z,80
2017-10-20T13:21:26.033Z,80
2017-10-20T13:22:25.066Z,85
2017-10-20T13:23:26.076Z,80
2017-10-20T13:24:26.047Z,85
2017-10-20T13:25:26.076Z,90
2017-10-20T13:26:26.371Z,100
2017-10-20T13:27:25.726Z,105
2017-10-20T13:28:25.762Z,110
2017-10-20T13:29:26.061Z,120
2017-10-20T13:30:26.314Z,125
2017-10-20T13:31:26.055Z,120
2017-10-20T13:32:26.393Z,115
2017-10-20T13:33:26.417Z,105
2017-10-20T13:34:25.430Z,105
2017-10-20T13:35:26.487Z,105
2017-10-20T13:36:26.072Z,100
2017-10-20T13:37:25.745Z,105
2017-10-20T13:38:26.079Z,115
2017-10-20T13:39:25.814Z,115
2017-10-20T13:40:26.078Z,120
2017-10-20T13:41:26.075Z,125
2017-10-20T13:42:25.439Z,120
2017-10-20T13:43:26.407Z,120
2017-10-20T13:44:26.086Z,115
2017-10-20T13:45:26.121Z,115
2017-10-20T13:46:26.088Z,115
2017-10-20T13:47:26.408Z,115
2017-10-20T13:48:26.173Z,115
2017-10-20T13:49:25.456Z,115
2017-10-20T13:50:25.790Z,115
2017-10-20T13:51:25.885Z,115
2017-10-20T13:52:26.441Z,105
2017-10-20T13:53:26.435Z,100
2017-10-20T13:54:26.319Z,95
2017-10-20T13:55:25.519Z,95
2017-10-20T13:56:26.461Z,95
2017-10-20T13:57:26.491Z,95
2017-10-20T13:58:26.509Z,90
2017-10-20T13:59:25.801Z,90
2017-10-20T14:00:26.476Z,90
2017-10-20T14:01:25.822Z,85
2017-10-20T14:02:25.813Z,85
2017-10-20T14:03:25.816Z,85
2017-10-20T14:04:26.157Z,85
2017-10-20T14:05:25.818Z,90
2017-10-20T14:06:25.494Z,90
2017-10-20T14:07:25.820Z,85
2017-10-20T14:08:25.831Z,85
2017-10-20T14:09:26.199Z,90
2017-10-20T14:10:26.160Z,95
2017-10-20T14:11:26.168Z,100
2017-10-20T14:12:26.488Z,105
2017-10-20T14:13:26.169Z,105
2017-10-20T14:14:25.844Z,110
2017-10-20T14:15:25.842Z,115
2017-10-20T14:16:26.489Z,120
2017-10-20T14:17:26.188Z,125
2017-10-20T14:18:25.199Z,130